Terminal Aerodrome Forecast
Issued by NWS Mt. Holly, NJ

Current Version | Previous Version | Text Only | Print | Product List | Glossary On
Versions: 1 2 3 4 5 6 7 8 9 10 11 12 13 14 15 16 17 18 19 20 21 22 23 24
645
FTUS41 KPHI 192057 AAA
TAFPHL
TAF AMD
KPHL 192057Z 1921/2024 21011KT P6SM FEW180
     FM192300 23006KT P6SM FEW250
     FM200600 29006KT P6SM SCT250
     FM201200 32009KT P6SM SKC=

USA.gov is the U.S. government's official web portal to all federal, state and local government web resources and services.